Time;durP1;ratioP1;P1;durP2;ratioP2;P2;SDS_P1;SDS_P2;PMS_P1;PMS_P2;Temp;Humidity;BMP_temperature;BMP_pressure;BME280_temperature;BME280_humidity;BME280_pressure;Samples;Min_cycle;Max_cycle;Signal;HPM_P1;HPM_P2
2022/07/05 00:00:09;;;;;;;3.15;2.88;;;13.40;99.90;;;;;;5045685;28;20060;-74
2022/07/05 00:02:35;;;;;;;4.32;2.95;;;13.40;99.90;;;;;;5047391;28;20167;-74
2022/07/05 00:05:00;;;;;;;3.85;3.15;;;13.40;99.90;;;;;;5047152;28;20567;-72
2022/07/05 00:07:26;;;;;;;5.82;3.45;;;13.30;99.90;;;;;;5033164;28;20041;-73
2022/07/05 00:09:57;;;;;;;7.95;2.88;;;13.20;99.90;;;;;;5045123;28;20033;-73
2022/07/05 00:12:29;;;;;;;6.15;2.92;;;13.20;99.90;;;;;;5046730;28;20091;-73
2022/07/05 00:14:55;;;;;;;3.83;2.92;;;13.30;99.90;;;;;;5047051;28;20071;-73
2022/07/05 00:17:21;;;;;;;4.40;2.97;;;13.30;99.90;;;;;;5042157;28;20058;-72
2022/07/05 00:19:47;;;;;;;3.90;2.75;;;13.30;99.90;;;;;;5027894;28;20166;-73
2022/07/05 00:22:13;;;;;;;5.93;3.15;;;13.20;99.90;;;;;;5047633;28;20033;-73
2022/07/05 00:24:39;;;;;;;4.90;3.58;;;13.20;99.90;;;;;;5045852;28;20453;-74
2022/07/05 00:27:05;;;;;;;5.25;3.05;;;13.20;99.90;;;;;;5046091;28;20041;-74
2022/07/05 00:29:31;;;;;;;3.67;3.03;;;13.10;99.90;;;;;;5045961;28;20077;-73
2022/07/05 00:31:56;;;;;;;3.35;3.05;;;13.10;99.90;;;;;;5044569;28;20056;-72
2022/07/05 00:34:22;;;;;;;4.97;3.10;;;13.10;99.90;;;;;;5042831;28;20038;-72
2022/07/05 00:36:48;;;;;;;5.88;3.33;;;13.00;99.90;;;;;;5029050;28;20077;-74
2022/07/05 00:39:13;;;;;;;3.80;3.15;;;13.00;99.90;;;;;;5024708;28;20048;-74
2022/07/05 00:41:39;;;;;;;8.23;3.67;;;13.00;99.90;;;;;;5043766;28;20124;-75
2022/07/05 00:44:11;;;;;;;4.85;3.03;;;13.00;99.90;;;;;;5045510;28;20132;-74
2022/07/05 00:46:38;;;;;;;5.07;3.38;;;12.90;99.90;;;;;;5044665;28;20087;-75
2022/07/05 00:49:05;;;;;;;3.90;3.22;;;12.90;99.90;;;;;;5045064;28;20919;-72
2022/07/05 00:51:34;;;;;;;6.93;2.92;;;13.00;99.90;;;;;;5046124;28;20049;-72
2022/07/05 00:54:01;;;;;;;4.10;3.03;;;13.00;99.90;;;;;;5042170;28;20529;-73
2022/07/05 00:56:27;;;;;;;5.30;3.60;;;13.00;99.90;;;;;;5044738;28;20060;-73
2022/07/05 00:58:54;;;;;;;5.32;3.95;;;13.00;99.90;;;;;;5040655;28;20569;-74
2022/07/05 01:01:20;;;;;;;4.55;3.72;;;13.00;99.90;;;;;;5044339;28;20087;-74
2022/07/05 01:03:46;;;;;;;5.25;3.33;;;13.00;99.90;;;;;;5045587;28;20052;-73
2022/07/05 01:06:13;;;;;;;6.90;3.80;;;13.00;99.90;;;;;;5045136;28;20588;-73
2022/07/05 01:08:41;;;;;;;3.63;3.30;;;12.90;99.90;;;;;;5043151;28;20836;-74
2022/07/05 01:11:11;;;;;;;5.05;3.58;;;12.90;99.90;;;;;;5031514;28;20041;-75
2022/07/05 01:13:37;;;;;;;6.00;3.75;;;12.90;99.90;;;;;;5027939;28;20116;-73
2022/07/05 01:16:04;;;;;;;5.35;4.07;;;12.80;99.90;;;;;;5043720;28;20053;-73
2022/07/05 01:18:31;;;;;;;3.95;3.55;;;12.90;99.90;;;;;;5045291;28;20051;-74
2022/07/05 01:20:58;;;;;;;6.68;4.38;;;12.80;99.90;;;;;;5043570;28;20056;-74
2022/07/05 01:23:30;;;;;;;4.35;3.95;;;12.70;99.90;;;;;;5042354;28;20045;-74
2022/07/05 01:25:58;;;;;;;5.00;4.07;;;12.70;99.90;;;;;;5045091;28;20083;-74
2022/07/05 01:28:24;;;;;;;6.03;4.43;;;12.80;99.90;;;;;;5041546;28;20052;-73
2022/07/05 01:30:51;;;;;;;10.18;5.78;;;12.70;99.90;;;;;;5045105;28;20384;-74
2022/07/05 01:33:17;;;;;;;9.15;5.32;;;12.70;99.90;;;;;;5047070;28;20044;-72
2022/07/05 01:35:42;;;;;;;7.45;4.07;;;12.70;99.90;;;;;;5045149;28;20051;-74
2022/07/05 01:38:11;;;;;;;6.80;4.88;;;12.70;99.90;;;;;;5042796;28;20570;-74
2022/07/05 01:40:37;;;;;;;4.32;3.90;;;12.70;99.90;;;;;;5058678;28;20108;-74
2022/07/05 01:43:03;;;;;;;7.85;3.92;;;12.60;99.90;;;;;;5044091;28;20143;-73
2022/07/05 01:45:44;;;;;;;7.22;4.50;;;12.60;99.90;;;;;;5043035;28;20037;-74
2022/07/05 01:48:12;;;;;;;6.70;4.65;;;12.60;99.90;;;;;;5043068;28;20071;-73
2022/07/05 01:51:08;;;;;;;6.35;4.25;;;12.60;99.90;;;;;;5044939;28;20051;-74
2022/07/05 01:53:33;;;;;;;7.28;4.80;;;12.60;99.90;;;;;;5026967;28;20106;-74
2022/07/05 01:56:00;;;;;;;6.72;4.57;;;12.50;99.90;;;;;;5043644;28;20037;-74
2022/07/05 01:58:26;;;;;;;6.45;4.38;;;12.50;99.90;;;;;;5042692;28;20048;-75
2022/07/05 02:00:53;;;;;;;8.07;4.90;;;12.50;99.90;;;;;;5043734;28;20132;-74
2022/07/05 02:03:20;;;;;;;9.60;4.88;;;12.50;99.90;;;;;;5028758;28;20037;-74
2022/07/05 02:05:46;;;;;;;6.28;4.93;;;12.50;99.90;;;;;;5045705;28;20040;-74
2022/07/05 02:08:13;;;;;;;11.25;5.43;;;12.50;99.90;;;;;;5026634;28;20076;-74
2022/07/05 02:10:40;;;;;;;9.20;6.07;;;12.40;99.90;;;;;;5026465;28;20048;-75
2022/07/05 02:13:06;;;;;;;7.70;5.68;;;12.40;99.90;;;;;;5044313;28;20052;-75
2022/07/05 02:15:37;;;;;;;6.38;5.32;;;12.40;99.90;;;;;;5043656;28;20138;-74
2022/07/05 02:18:04;;;;;;;5.95;5.00;;;12.40;99.90;;;;;;5041670;28;20491;-73
2022/07/05 02:20:30;;;;;;;7.68;6.10;;;12.30;99.90;;;;;;5044991;28;20072;-74
2022/07/05 02:22:57;;;;;;;6.57;6.00;;;12.30;99.90;;;;;;5026413;28;20048;-73
2022/07/05 02:25:23;;;;;;;6.97;5.25;;;12.40;99.90;;;;;;5043932;28;20162;-73
2022/07/05 02:27:50;;;;;;;8.63;5.82;;;12.40;99.90;;;;;;5042084;28;20040;-74
2022/07/05 02:30:16;;;;;;;11.15;5.80;;;12.30;99.90;;;;;;5042873;28;20033;-74
2022/07/05 02:32:42;;;;;;;6.72;5.10;;;12.30;99.90;;;;;;5043610;28;20434;-74
2022/07/05 02:35:09;;;;;;;5.82;5.32;;;12.40;99.90;;;;;;5044004;28;20040;-74
2022/07/05 02:37:35;;;;;;;5.38;4.88;;;12.30;99.90;;;;;;5043932;28;20040;-73
2022/07/05 02:40:01;;;;;;;9.95;6.63;;;12.30;99.90;;;;;;5043312;28;20179;-74
2022/07/05 02:42:26;;;;;;;8.98;6.78;;;12.40;99.90;;;;;;5044488;28;20060;-72
2022/07/05 02:44:52;;;;;;;7.43;5.13;;;12.30;99.90;;;;;;5044950;28;20041;-74
2022/07/05 02:47:18;;;;;;;8.18;6.05;;;12.20;99.90;;;;;;5042782;28;20052;-74
2022/07/05 02:49:43;;;;;;;6.88;5.50;;;12.30;99.90;;;;;;5043348;28;20055;-73
2022/07/05 02:52:09;;;;;;;8.10;5.97;;;12.30;99.90;;;;;;5043958;28;20040;-72
2022/07/05 02:54:35;;;;;;;5.60;5.10;;;12.20;99.90;;;;;;5045441;28;20045;-74
2022/07/05 02:57:00;;;;;;;9.38;6.70;;;12.20;99.90;;;;;;5043301;28;20474;-72
2022/07/05 02:59:26;;;;;;;7.32;5.50;;;12.20;99.90;;;;;;5022635;28;20045;-73
2022/07/05 03:01:52;;;;;;;7.13;6.30;;;12.20;99.90;;;;;;5037739;28;20399;-73
2022/07/05 03:04:18;;;;;;;8.80;6.43;;;12.10;99.90;;;;;;5045387;28;20044;-73
2022/07/05 03:06:44;;;;;;;7.47;6.18;;;12.10;99.90;;;;;;5048363;28;20450;-73
2022/07/05 03:09:10;;;;;;;9.52;7.05;;;12.10;99.90;;;;;;5042942;28;20041;-74
2022/07/05 03:11:36;;;;;;;7.20;6.28;;;12.10;99.90;;;;;;5043788;28;20052;-73
2022/07/05 03:14:01;;;;;;;9.68;6.03;;;12.10;99.90;;;;;;5047317;28;20041;-73
2022/07/05 03:16:29;;;;;;;7.75;6.32;;;12.10;99.90;;;;;;5048095;28;20044;-74
2022/07/05 03:18:55;;;;;;;7.70;5.55;;;12.10;99.90;;;;;;5047060;28;20048;-74
2022/07/05 03:21:21;;;;;;;7.63;6.72;;;12.10;99.90;;;;;;5046677;28;20045;-74
2022/07/05 03:23:47;;;;;;;8.60;5.65;;;12.10;99.90;;;;;;5043199;28;20041;-74
2022/07/05 03:26:12;;;;;;;6.53;5.82;;;12.10;99.90;;;;;;5046247;28;20052;-75
2022/07/05 03:28:38;;;;;;;6.95;5.95;;;12.20;99.90;;;;;;5046107;28;20056;-74
2022/07/05 03:31:04;;;;;;;8.48;5.75;;;12.10;99.90;;;;;;5043299;28;20131;-73
2022/07/05 03:33:29;;;;;;;7.55;6.82;;;12.20;99.90;;;;;;5048199;28;20044;-74
2022/07/05 03:35:55;;;;;;;8.65;7.07;;;12.20;99.90;;;;;;5047994;28;20041;-73
2022/07/05 03:38:21;;;;;;;6.45;5.85;;;12.20;99.90;;;;;;5045878;28;20037;-74
2022/07/05 03:40:47;;;;;;;9.68;6.40;;;12.20;99.90;;;;;;5043627;28;20538;-74
2022/07/05 03:43:12;;;;;;;7.07;5.88;;;12.20;99.90;;;;;;5046402;28;20041;-74
2022/07/05 03:45:38;;;;;;;7.25;6.55;;;12.30;99.90;;;;;;5046472;28;20758;-74
2022/07/05 03:48:04;;;;;;;6.00;5.47;;;12.30;99.90;;;;;;5044978;28;20041;-74
2022/07/05 03:50:30;;;;;;;8.32;6.28;;;12.30;99.90;;;;;;5047324;28;20174;-73
2022/07/05 03:52:55;;;;;;;8.23;6.30;;;12.30;99.90;;;;;;5045782;28;20128;-74
2022/07/05 03:55:21;;;;;;;9.30;6.43;;;12.30;99.90;;;;;;5048420;28;20132;-73
2022/07/05 03:57:47;;;;;;;6.00;5.40;;;12.40;99.90;;;;;;5046422;28;20045;-74
2022/07/05 04:00:14;;;;;;;8.55;6.13;;;12.40;99.90;;;;;;5044392;28;20167;-73
2022/07/05 04:02:39;;;;;;;7.35;5.50;;;12.40;99.90;;;;;;5045820;28;20128;-73
2022/07/05 04:05:06;;;;;;;9.52;6.00;;;12.40;99.90;;;;;;5046693;28;20124;-74
2022/07/05 04:07:32;;;;;;;5.38;4.90;;;12.40;99.90;;;;;;5030551;28;20037;-74
2022/07/05 04:09:58;;;;;;;6.13;5.53;;;12.40;99.90;;;;;;5046456;28;20045;-73
2022/07/05 04:12:24;;;;;;;8.02;5.65;;;12.30;99.90;;;;;;5046863;28;20080;-74
2022/07/05 04:14:49;;;;;;;6.07;5.00;;;12.30;99.90;;;;;;5045196;28;20083;-73
2022/07/05 04:17:15;;;;;;;11.90;5.20;;;12.40;99.90;;;;;;5046337;28;20037;-74
2022/07/05 04:19:40;;;;;;;7.55;5.78;;;12.40;99.90;;;;;;5043299;28;20048;-74
2022/07/05 04:22:06;;;;;;;7.40;5.55;;;12.40;99.90;;;;;;5046552;28;20052;-73
2022/07/05 04:25:16;;;;;;;7.93;5.38;;;12.40;99.90;;;;;;5042958;28;20068;-74
2022/07/05 04:27:17;;;;;;;7.07;5.13;;;12.40;99.90;;;;;;5047951;28;20052;-74
2022/07/05 04:29:43;;;;;;;6.40;5.70;;;12.40;99.90;;;;;;5046338;28;20037;-74
2022/07/05 04:32:09;;;;;;;5.57;5.03;;;12.50;99.90;;;;;;5045666;28;20131;-75
2022/07/05 04:34:34;;;;;;;6.93;4.38;;;13.00;99.90;;;;;;5045391;28;20080;-74
2022/07/05 04:37:00;;;;;;;6.25;4.57;;;13.70;99.90;;;;;;5046952;28;20403;-74
2022/07/05 04:39:26;;;;;;;9.45;4.68;;;13.40;99.90;;;;;;5043179;28;20064;-74
2022/07/05 04:41:51;;;;;;;8.57;5.03;;;13.70;99.90;;;;;;5043542;28;20040;-74
2022/07/05 04:44:17;;;;;;;10.90;4.97;;;13.50;99.90;;;;;;5043725;28;20067;-75
2022/07/05 04:46:42;;;;;;;4.93;4.20;;;13.30;99.90;;;;;;5046015;28;20041;-73
2022/07/05 04:49:08;;;;;;;8.00;4.45;;;13.40;99.90;;;;;;5046854;28;20816;-74
2022/07/05 04:51:34;;;;;;;4.78;4.07;;;14.30;99.90;;;;;;5046574;28;20926;-72
2022/07/05 04:53:59;;;;;;;5.95;5.00;;;14.50;99.90;;;;;;5040870;28;20087;-72
2022/07/05 04:56:25;;;;;;;6.82;4.25;;;14.10;99.90;;;;;;5043755;28;20135;-72
2022/07/05 04:58:50;;;;;;;6.15;4.90;;;14.00;99.90;;;;;;5045806;28;20084;-72
2022/07/05 05:01:16;;;;;;;5.72;4.88;;;13.90;99.90;;;;;;5027262;28;20079;-72
2022/07/05 05:03:42;;;;;;;10.63;4.22;;;13.80;99.90;;;;;;5041800;28;20577;-72
2022/07/05 05:06:07;;;;;;;6.88;3.92;;;13.90;99.90;;;;;;5027845;28;20052;-72
2022/07/05 05:08:33;;;;;;;6.10;3.55;;;13.90;99.90;;;;;;5044588;28;20071;-72
2022/07/05 05:10:59;;;;;;;9.23;4.45;;;14.30;99.90;;;;;;5045081;28;20064;-72
2022/07/05 05:13:24;;;;;;;4.07;2.90;;;14.30;99.90;;;;;;5046380;28;20080;-73
2022/07/05 05:15:50;;;;;;;5.75;3.47;;;14.20;99.90;;;;;;5025685;28;20045;-72
2022/07/05 05:18:18;;;;;;;5.82;3.40;;;14.30;99.90;;;;;;5041467;28;20045;-72
2022/07/05 05:20:44;;;;;;;5.10;3.60;;;14.30;99.90;;;;;;5043007;28;20124;-72
2022/07/05 05:23:09;;;;;;;7.88;3.70;;;14.30;99.90;;;;;;5026749;28;20132;-73
2022/07/05 05:25:36;;;;;;;4.50;3.15;;;14.40;99.90;;;;;;5046940;28;20044;-73
2022/07/05 05:28:02;;;;;;;8.30;3.45;;;14.40;99.90;;;;;;5043425;28;20037;-72
2022/07/05 05:30:28;;;;;;;7.47;3.40;;;14.50;99.90;;;;;;5045852;28;20045;-72
2022/07/05 05:32:54;;;;;;;5.43;2.88;;;14.60;99.90;;;;;;5043602;28;20082;-72
2022/07/05 05:35:21;;;;;;;4.88;2.08;;;14.70;99.90;;;;;;5028837;28;20094;-72
2022/07/05 05:37:51;;;;;;;5.22;2.38;;;14.80;99.90;;;;;;5045028;28;20111;-72
2022/07/05 05:40:17;;;;;;;5.18;1.80;;;14.80;99.90;;;;;;5047372;28;20045;-72
2022/07/05 05:42:43;;;;;;;3.17;1.85;;;14.90;99.90;;;;;;5045458;28;20235;-72
2022/07/05 05:45:09;;;;;;;3.70;2.17;;;15.00;99.90;;;;;;5044426;28;20419;-73
2022/07/05 05:47:49;;;;;;;5.43;1.88;;;15.40;99.90;;;;;;5042354;28;20388;-73
2022/07/05 05:50:22;;;;;;;;;;;15.40;99.90;;;;;;5040992;28;20522;-73
2022/07/05 05:52:48;;;;;;;3.05;1.40;;;15.40;99.90;;;;;;5045102;28;20380;-72
2022/07/05 05:55:14;;;;;;;8.35;2.35;;;15.50;99.90;;;;;;5044894;28;20183;-73
2022/07/05 05:57:39;;;;;;;4.97;1.67;;;15.50;99.90;;;;;;5045006;28;20098;-72
2022/07/05 06:00:06;;;;;;;5.50;1.88;;;15.60;99.90;;;;;;5042095;28;20049;-73
2022/07/05 06:02:32;;;;;;;2.13;1.15;;;15.60;99.90;;;;;;5038283;28;20491;-72
2022/07/05 06:04:58;;;;;;;3.85;1.38;;;15.50;99.90;;;;;;5046191;28;20161;-72
2022/07/05 06:07:23;;;;;;;4.35;1.25;;;15.60;99.90;;;;;;5045672;28;20464;-76
2022/07/05 06:09:49;;;;;;;14.15;1.40;;;15.70;99.90;;;;;;5040146;28;20487;-72
2022/07/05 06:12:15;;;;;;;4.82;2.13;;;15.70;99.90;;;;;;5042020;28;20044;-72
2022/07/05 06:14:41;;;;;;;5.57;1.67;;;15.80;99.90;;;;;;5044061;28;20053;-72
2022/07/05 06:17:07;;;;;;;1.95;1.15;;;15.80;99.90;;;;;;5044396;28;20045;-73
2022/07/05 06:19:33;;;;;;;10.07;1.98;;;15.90;99.90;;;;;;5044397;28;20045;-72
2022/07/05 06:21:58;;;;;;;3.42;1.10;;;16.00;99.90;;;;;;5044756;28;20075;-72
2022/07/05 06:24:24;;;;;;;2.30;1.13;;;16.00;99.90;;;;;;5040411;28;20056;-72
2022/07/05 06:26:50;;;;;;;2.20;0.90;;;16.10;99.90;;;;;;5044022;28;20123;-72
2022/07/05 06:29:15;;;;;;;4.03;1.40;;;16.10;99.90;;;;;;5046198;28;20037;-72
2022/07/05 06:31:41;;;;;;;8.63;1.00;;;16.20;99.90;;;;;;5044922;28;20051;-73
2022/07/05 06:34:07;;;;;;;7.93;1.05;;;16.30;99.90;;;;;;5045547;28;20454;-73
2022/07/05 06:36:33;;;;;;;3.42;0.82;;;16.30;99.90;;;;;;5041635;28;20037;-73
2022/07/05 06:38:58;;;;;;;4.95;1.25;;;16.40;99.90;;;;;;5024636;28;20056;-73
2022/07/05 06:41:24;;;;;;;7.53;1.25;;;16.40;99.90;;;;;;5044789;28;20731;-72
2022/07/05 06:43:50;;;;;;;2.83;0.70;;;16.50;99.90;;;;;;5042368;28;20045;-72
2022/07/05 06:46:15;;;;;;;3.45;0.70;;;16.60;99.90;;;;;;5041817;28;20045;-72
2022/07/05 06:48:41;;;;;;;2.75;0.70;;;16.60;99.90;;;;;;5045797;28;20587;-73
2022/07/05 06:51:07;;;;;;;10.15;0.85;;;16.70;99.90;;;;;;5044176;28;20041;-73
2022/07/05 06:53:32;;;;;;;2.83;0.90;;;16.80;99.90;;;;;;5044106;28;20045;-72
2022/07/05 06:55:58;;;;;;;6.50;1.10;;;16.90;99.90;;;;;;5044170;28;20499;-72
2022/07/05 06:58:24;;;;;;;6.47;0.80;;;17.40;99.90;;;;;;5045370;28;20432;-72
2022/07/05 07:00:50;;;;;;;3.20;0.68;;;18.10;99.90;;;;;;5043356;28;20454;-74
2022/07/05 07:03:16;;;;;;;4.78;1.60;;;18.50;99.90;;;;;;5045021;28;20381;-74
2022/07/05 07:05:42;;;;;;;3.95;0.50;;;19.20;99.90;;;;;;5044208;28;20503;-74
2022/07/05 07:10:51;;;;;;;4.38;0.85;;;20.80;99.90;;;;;;5028494;28;20041;-74
2022/07/05 07:13:19;;;;;;;2.05;0.55;;;21.10;99.90;;;;;;5044499;28;20481;-74
2022/07/05 07:15:46;;;;;;;4.43;1.48;;;21.60;99.90;;;;;;5043736;28;20130;-74
2022/07/05 07:18:12;;;;;;;1.55;0.50;;;21.90;99.90;;;;;;5043606;28;20052;-73
2022/07/05 07:20:37;;;;;;;3.85;0.90;;;22.30;99.90;;;;;;5044231;28;20049;-75
2022/07/05 07:23:03;;;;;;;3.25;0.82;;;22.00;99.90;;;;;;5043075;28;20051;-74
2022/07/05 07:25:29;;;;;;;5.72;0.88;;;21.20;99.90;;;;;;5044959;28;20051;-74
2022/07/05 07:27:55;;;;;;;5.72;0.80;;;21.60;99.90;;;;;;5043858;28;20080;-73
2022/07/05 07:30:23;;;;;;;4.95;1.10;;;20.70;99.90;;;;;;5044098;28;20080;-74
2022/07/05 07:32:49;;;;;;;5.53;1.45;;;21.30;99.90;;;;;;5043348;28;20049;-73
2022/07/05 07:35:15;;;;;;;3.70;0.93;;;21.90;99.90;;;;;;5044926;28;20056;-73
2022/07/05 07:37:41;;;;;;;4.97;0.88;;;22.10;99.90;;;;;;5044857;28;20033;-73
2022/07/05 07:40:08;;;;;;;2.95;0.70;;;22.40;99.90;;;;;;5038810;28;20163;-73
2022/07/05 07:42:34;;;;;;;3.83;1.17;;;22.50;99.90;;;;;;5039542;28;20036;-73
2022/07/05 07:45:03;;;;;;;3.40;0.73;;;22.50;99.90;;;;;;5042442;28;20605;-74
2022/07/05 07:47:30;;;;;;;3.87;1.00;;;22.80;99.90;;;;;;5044081;28;20143;-74
2022/07/05 07:49:55;;;;;;;4.32;0.55;;;22.90;99.90;;;;;;5045070;28;20048;-73
2022/07/05 07:52:21;;;;;;;3.72;0.80;;;23.00;99.90;;;;;;5047949;28;20060;-74
2022/07/05 07:54:46;;;;;;;2.95;1.20;;;22.10;99.90;;;;;;5047312;28;20443;-74
2022/07/05 07:57:12;;;;;;;4.00;0.70;;;20.80;99.90;;;;;;5046229;28;20120;-74
2022/07/05 07:59:38;;;;;;;4.43;1.17;;;20.70;99.90;;;;;;5029437;28;20057;-74
2022/07/05 08:02:04;;;;;;;6.47;0.82;;;20.80;99.90;;;;;;5045237;28;20037;-73
2022/07/05 08:04:29;;;;;;;5.63;1.20;;;20.50;99.90;;;;;;5044800;28;20037;-74
2022/07/05 08:06:55;;;;;;;3.55;0.63;;;20.50;99.90;;;;;;5047431;28;20049;-75
2022/07/05 08:09:21;;;;;;;7.97;1.65;;;20.20;99.90;;;;;;5046683;28;20048;-73
2022/07/05 08:11:47;;;;;;;0.93;0.57;;;19.90;99.90;;;;;;5049157;28;20171;-74
2022/07/05 08:14:17;;;;;;;6.45;1.33;;;19.60;99.90;;;;;;5047022;28;20037;-75
2022/07/05 08:16:43;;;;;;;4.40;0.80;;;20.00;99.90;;;;;;5030636;28;20045;-74
2022/07/05 08:21:53;;;;;;;3.60;0.60;;;20.10;99.90;;;;;;5046008;28;20059;-74
2022/07/05 08:24:18;;;;;;;4.40;0.90;;;20.40;99.90;;;;;;5044804;28;20041;-74
2022/07/05 08:26:44;;;;;;;3.65;0.90;;;20.20;99.90;;;;;;5047612;28;20115;-74
2022/07/05 08:29:12;;;;;;;3.63;0.65;;;20.20;99.90;;;;;;5043351;28;20041;-74
2022/07/05 08:31:41;;;;;;;3.30;0.70;;;20.70;99.90;;;;;;5041948;28;20044;-75
2022/07/05 08:34:07;;;;;;;4.15;0.98;;;20.70;99.90;;;;;;5046769;28;20084;-75
2022/07/05 08:36:33;;;;;;;3.75;0.73;;;20.20;99.90;;;;;;5043587;28;20376;-75
2022/07/05 08:38:58;;;;;;;9.18;0.90;;;19.90;99.90;;;;;;5044103;28;20043;-75
2022/07/05 08:41:24;;;;;;;4.30;0.60;;;20.00;99.90;;;;;;5046400;28;20583;-74
2022/07/05 08:43:53;;;;;;;2.35;1.05;;;20.20;99.90;;;;;;5042103;28;20127;-74
2022/07/05 08:46:20;;;;;;;4.80;0.85;;;20.60;99.90;;;;;;5043017;28;20422;-73
2022/07/05 08:48:51;;;;;;;3.88;0.77;;;20.50;99.90;;;;;;5042579;28;20045;-73
2022/07/05 08:51:22;;;;;;;4.05;0.60;;;19.70;99.90;;;;;;5042330;28;20033;-74
2022/07/05 08:53:49;;;;;;;1.65;0.85;;;19.30;99.90;;;;;;5043126;28;20049;-73
2022/07/05 08:56:15;;;;;;;2.45;1.15;;;19.30;99.90;;;;;;5044032;28;20668;-73
2022/07/05 08:58:42;;;;;;;6.07;1.50;;;19.30;99.90;;;;;;5043006;28;20132;-73
2022/07/05 09:01:09;;;;;;;5.50;0.52;;;19.70;99.90;;;;;;5045174;28;20560;-74
2022/07/05 09:03:51;;;;;;;4.03;0.60;;;19.20;99.90;;;;;;5047164;28;20129;-73
2022/07/05 09:06:20;;;;;;;2.40;0.70;;;19.20;99.90;;;;;;5045390;28;20117;-73
2022/07/05 09:08:48;;;;;;;1.95;0.52;;;19.40;99.90;;;;;;5045908;28;20049;-73
2022/07/05 09:11:15;;;;;;;5.32;0.85;;;19.20;99.90;;;;;;5046094;28;20045;-73
2022/07/05 09:13:43;;;;;;;4.63;0.63;;;18.90;99.90;;;;;;5045518;28;20033;-73
2022/07/05 09:16:09;;;;;;;9.10;1.27;;;18.90;99.90;;;;;;5030060;28;20065;-73
2022/07/05 09:18:42;;;;;;;6.70;0.93;;;18.70;99.90;;;;;;5029724;28;20052;-73
2022/07/05 09:21:16;;;;;;;9.68;2.10;;;18.50;99.90;;;;;;5047167;28;20045;-72
2022/07/05 09:23:42;;;;;;;4.72;1.23;;;18.50;99.90;;;;;;5040992;28;20106;-73
2022/07/05 09:26:08;;;;;;;5.45;1.20;;;18.50;99.90;;;;;;5041655;28;20051;-73
2022/07/05 09:28:34;;;;;;;3.70;0.82;;;19.20;99.90;;;;;;5043686;28;20466;-74
2022/07/05 09:31:00;;;;;;;5.15;1.23;;;19.70;99.90;;;;;;5043613;28;20040;-74
2022/07/05 09:33:25;;;;;;;5.32;0.80;;;20.20;99.90;;;;;;5046658;28;20432;-74
2022/07/05 09:35:59;;;;;;;5.85;0.57;;;20.10;99.90;;;;;;5045573;28;20033;-75
2022/07/05 09:38:26;;;;;;;5.90;1.65;;;19.80;99.90;;;;;;5044933;28;20431;-75
2022/07/05 09:40:53;;;;;;;2.60;0.73;;;19.30;99.90;;;;;;5045204;28;20048;-74
2022/07/05 09:43:21;;;;;;;2.42;0.63;;;19.00;99.90;;;;;;5044854;28;20430;-73
2022/07/05 09:45:58;;;;;;;2.38;0.82;;;19.00;99.90;;;;;;5039394;28;20439;-73
2022/07/05 09:48:24;;;;;;;7.25;0.80;;;19.70;99.90;;;;;;5044918;28;20087;-73
2022/07/05 09:50:51;;;;;;;2.55;1.27;;;19.50;99.90;;;;;;5044485;28;20047;-73
2022/07/05 09:53:18;;;;;;;3.75;0.80;;;19.30;99.90;;;;;;5038202;28;20470;-74
2022/07/05 09:56:01;;;;;;;1.60;0.47;;;19.00;99.90;;;;;;5028011;28;20828;-74
2022/07/05 09:58:27;;;;;;;3.85;0.68;;;19.20;99.90;;;;;;5039640;28;20116;-74
2022/07/05 10:00:53;;;;;;;1.73;0.60;;;19.10;99.90;;;;;;5044136;28;20084;-73
2022/07/05 10:03:18;;;;;;;4.03;0.73;;;19.10;99.90;;;;;;5045493;28;20076;-74
2022/07/05 10:05:44;;;;;;;0.98;0.75;;;19.00;99.90;;;;;;5047461;28;20067;-73
2022/07/05 10:08:12;;;;;;;2.78;0.75;;;19.40;99.90;;;;;;5039049;28;20045;-74
2022/07/05 10:10:40;;;;;;;3.60;0.73;;;19.90;99.90;;;;;;5045391;28;20073;-73
2022/07/05 10:13:06;;;;;;;3.75;0.55;;;20.20;99.90;;;;;;5044798;28;20048;-73
2022/07/05 10:15:33;;;;;;;4.50;0.65;;;20.80;99.90;;;;;;5043940;28;20045;-73
2022/07/05 10:18:10;;;;;;;4.25;0.57;;;21.00;99.90;;;;;;5036931;28;20036;-74
2022/07/05 10:20:40;;;;;;;2.70;0.63;;;20.70;99.90;;;;;;5042830;28;20040;-74
2022/07/05 10:23:12;;;;;;;1.98;0.90;;;20.80;99.90;;;;;;5036947;28;20094;-73
2022/07/05 10:25:40;;;;;;;3.78;0.68;;;20.70;99.90;;;;;;5045806;28;20488;-73
2022/07/05 10:28:07;;;;;;;6.97;2.15;;;20.40;99.90;;;;;;5041556;28;20144;-73
2022/07/05 10:30:33;;;;;;;3.22;0.70;;;20.20;99.90;;;;;;5040516;28;20094;-74
2022/07/05 10:33:03;;;;;;;1.17;0.55;;;20.00;99.90;;;;;;5042510;28;20037;-74
2022/07/05 10:35:29;;;;;;;4.03;0.60;;;19.80;99.90;;;;;;5042294;28;20053;-74
2022/07/05 10:37:57;;;;;;;5.93;0.75;;;19.70;99.90;;;;;;5041651;28;20079;-77
2022/07/05 10:40:22;;;;;;;4.80;0.60;;;19.30;99.90;;;;;;5043725;28;20037;-75
2022/07/05 10:42:52;;;;;;;6.05;0.70;;;19.30;99.90;;;;;;5044208;28;20063;-75
2022/07/05 10:45:32;;;;;;;3.58;0.70;;;19.90;99.90;;;;;;5042416;28;20037;-77
2022/07/05 10:48:10;;;;;;;2.60;0.50;;;20.00;99.90;;;;;;5045958;28;20076;-76
2022/07/05 10:50:44;;;;;;;4.07;1.25;;;20.20;99.90;;;;;;5044018;28;20053;-77
2022/07/05 10:53:10;;;;;;;4.65;0.63;;;20.40;99.90;;;;;;5025170;28;20049;-76
2022/07/05 10:55:55;;;;;;;3.08;1.10;;;20.50;99.90;;;;;;5043199;28;20090;-76
2022/07/05 10:58:23;;;;;;;4.88;0.80;;;20.50;99.90;;;;;;5027018;28;20123;-77
2022/07/05 11:01:12;;;;;;;2.55;0.40;;;20.90;99.90;;;;;;5038327;28;20098;-75
2022/07/05 11:03:58;;;;;;;3.92;0.90;;;21.20;99.90;;;;;;5041761;28;20077;-77
2022/07/05 11:06:28;;;;;;;6.70;0.95;;;21.50;99.90;;;;;;5042769;28;20095;-75
2022/07/05 11:09:00;;;;;;;3.25;0.60;;;21.10;99.90;;;;;;5045703;28;20063;-76
2022/07/05 11:11:29;;;;;;;4.93;0.57;;;21.30;99.90;;;;;;5043737;28;20033;-75
2022/07/05 11:13:58;;;;;;;4.45;0.55;;;21.20;99.90;;;;;;5043931;28;20112;-76
2022/07/05 11:16:24;;;;;;;3.05;0.60;;;21.10;99.90;;;;;;5046418;28;20037;-76
2022/07/05 11:18:51;;;;;;;4.10;0.52;;;21.20;99.90;;;;;;5042295;28;20119;-76
2022/07/05 11:21:22;;;;;;;3.30;0.70;;;21.20;99.90;;;;;;5041586;28;20514;-75
2022/07/05 11:23:48;;;;;;;3.53;0.60;;;21.40;99.90;;;;;;5040312;28;20051;-76
2022/07/05 11:26:18;;;;;;;1.58;0.50;;;21.00;99.90;;;;;;5037669;28;20059;-76
2022/07/05 11:28:47;;;;;;;1.08;0.47;;;20.30;99.90;;;;;;5047399;28;20055;-75
2022/07/05 11:31:42;;;;;;;3.17;0.70;;;20.40;99.90;;;;;;5044937;28;20064;-75
2022/07/05 11:34:14;;;;;;;5.35;0.95;;;20.80;99.90;;;;;;5046615;28;20045;-77
2022/07/05 11:36:40;;;;;;;4.35;0.75;;;20.40;99.90;;;;;;5049808;28;20045;-78
2022/07/05 11:39:15;;;;;;;7.88;0.95;;;19.90;99.90;;;;;;5049168;28;20040;-78
2022/07/05 11:41:46;;;;;;;4.63;1.05;;;19.40;99.90;;;;;;5046048;28;20108;-78
2022/07/05 11:44:12;;;;;;;3.97;0.98;;;19.20;99.90;;;;;;5048445;28;20041;-78
2022/07/05 11:46:38;;;;;;;8.52;1.55;;;19.00;99.90;;;;;;5048512;28;20037;-77
2022/07/05 11:49:03;;;;;;;4.22;0.60;;;18.90;99.90;;;;;;5045577;28;20056;-78
2022/07/05 11:51:29;;;;;;;3.92;0.73;;;18.90;99.90;;;;;;5047437;28;20045;-78
2022/07/05 11:53:55;;;;;;;5.65;1.52;;;18.80;99.90;;;;;;5044246;28;20502;-80
2022/07/05 11:56:21;;;;;;;3.67;0.55;;;18.80;99.90;;;;;;5047868;28;20051;-81
2022/07/05 11:58:47;;;;;;;3.55;1.35;;;19.00;99.90;;;;;;5048262;28;20049;-81
2022/07/05 12:01:13;;;;;;;3.47;0.88;;;19.20;99.90;;;;;;5048119;28;20041;-80
2022/07/05 12:03:41;;;;;;;4.40;1.67;;;20.00;99.90;;;;;;5030270;28;20277;-81
2022/07/05 12:06:11;;;;;;;2.28;0.70;;;20.30;99.90;;;;;;5047345;28;20095;-81
2022/07/05 12:08:37;;;;;;;1.67;0.50;;;20.70;99.90;;;;;;5044851;28;20119;-80
2022/07/05 12:13:51;;;;;;;2.50;0.50;;;20.00;99.90;;;;;;5047253;28;20087;-80
2022/07/05 12:16:17;;;;;;;1.57;0.47;;;20.00;99.90;;;;;;5047902;28;20399;-80
2022/07/05 12:18:58;;;;;;;2.78;0.63;;;19.80;99.90;;;;;;5047831;28;20041;-79
2022/07/05 12:21:24;;;;;;;1.45;0.50;;;19.80;99.90;;;;;;5048107;28;20099;-80
2022/07/05 12:23:51;;;;;;;3.30;0.60;;;19.60;99.90;;;;;;5047846;28;20037;-80
2022/07/05 12:26:18;;;;;;;1.85;0.55;;;19.60;99.90;;;;;;5049188;28;20404;-81
2022/07/05 12:28:45;;;;;;;1.75;0.77;;;19.70;99.90;;;;;;5046762;28;20049;-81
2022/07/05 12:31:22;;;;;;;2.28;0.70;;;20.10;99.90;;;;;;5048266;28;20037;-79
2022/07/05 12:33:49;;;;;;;4.20;0.68;;;20.40;99.90;;;;;;5047543;28;20386;-79
2022/07/05 12:36:16;;;;;;;10.85;1.20;;;20.40;99.90;;;;;;5047851;28;20045;-81
2022/07/05 12:38:42;;;;;;;1.58;0.38;;;20.70;99.90;;;;;;5047140;28;20052;-79
2022/07/05 12:41:09;;;;;;;2.72;0.68;;;20.80;99.90;;;;;;5047117;28;20451;-79
2022/07/05 12:43:52;;;;;;;1.65;0.90;;;20.50;99.90;;;;;;5046252;28;20033;-82
2022/07/05 12:46:18;;;;;;;2.63;1.00;;;20.30;99.90;;;;;;5047449;28;20047;-78
2022/07/05 12:48:45;;;;;;;2.35;1.15;;;20.60;99.90;;;;;;5048401;28;20053;-80
2022/07/05 12:51:11;;;;;;;2.33;0.57;;;20.60;99.90;;;;;;5046352;28;20083;-79
2022/07/05 12:59:18;;;;;;;2.95;0.70;;;20.10;99.90;;;;;;5046554;28;20064;-79
2022/07/05 13:01:44;;;;;;;0.65;0.40;;;19.80;99.90;;;;;;5047043;28;20034;-80